createdAt,value
2023-12-13T00:01:20.040Z,1.17
2023-12-13T00:03:47.177Z,1.30
2023-12-13T00:06:13.460Z,1.10
2023-12-13T00:08:39.940Z,1.30
2023-12-13T00:11:06.450Z,1.17
2023-12-13T00:13:32.741Z,1.13
2023-12-13T00:15:59.208Z,0.90
2023-12-13T00:18:25.615Z,1.00
2023-12-13T00:20:52.742Z,1.23
2023-12-13T00:23:19.053Z,0.80
2023-12-13T00:25:45.585Z,0.80
2023-12-13T00:28:12.072Z,1.10
2023-12-13T00:30:38.393Z,1.00
2023-12-13T00:33:04.942Z,1.00
2023-12-13T00:35:31.434Z,1.20
2023-12-13T00:37:58.436Z,0.90
2023-12-13T00:40:24.892Z,1.50
2023-12-13T00:42:51.427Z,1.00
2023-12-13T00:45:17.776Z,1.33
2023-12-13T00:47:44.196Z,1.20
2023-12-13T00:50:10.553Z,1.07
2023-12-13T00:52:36.961Z,1.20
2023-12-13T00:55:05.043Z,1.20
2023-12-13T00:57:31.687Z,1.07
2023-12-13T00:59:58.111Z,1.23
2023-12-13T01:02:24.590Z,1.20
2023-12-13T01:04:51.002Z,1.43
2023-12-13T01:07:17.396Z,1.10
2023-12-13T01:09:43.791Z,1.70
2023-12-13T01:12:11.061Z,1.30
2023-12-13T01:14:37.348Z,1.33
2023-12-13T01:17:03.998Z,1.30
2023-12-13T01:19:30.304Z,1.40
2023-12-13T01:21:56.617Z,1.40
2023-12-13T01:24:23.063Z,1.30
2023-12-13T01:26:49.432Z,1.10
2023-12-13T01:29:16.474Z,1.20
2023-12-13T01:31:42.727Z,1.03
2023-12-13T01:34:09.093Z,1.17
2023-12-13T01:36:41.053Z,1.17
2023-12-13T01:39:08.093Z,1.10
2023-12-13T01:41:34.605Z,1.40
2023-12-13T01:44:01.282Z,1.47
2023-12-13T01:46:30.957Z,1.13
2023-12-13T01:48:57.462Z,1.53
2023-12-13T01:51:24.030Z,1.60
2023-12-13T01:53:50.668Z,1.50
2023-12-13T01:56:17.020Z,1.70
2023-12-13T01:58:44.486Z,1.40
2023-12-13T02:01:11.192Z,1.33
2023-12-13T02:03:38.897Z,1.60
2023-12-13T02:06:05.899Z,1.20
2023-12-13T02:08:32.502Z,1.10
2023-12-13T02:11:00.163Z,1.50
2023-12-13T02:13:26.586Z,1.30
2023-12-13T02:15:53.003Z,1.20
2023-12-13T02:18:19.286Z,1.37
2023-12-13T02:20:46.473Z,1.50
2023-12-13T02:23:13.516Z,1.50
2023-12-13T02:25:43.914Z,1.43
2023-12-13T02:28:10.360Z,1.40
2023-12-13T02:30:36.769Z,1.10
2023-12-13T02:33:03.402Z,1.40
2023-12-13T02:35:29.766Z,1.50
2023-12-13T02:37:56.112Z,2.33
2023-12-13T02:40:23.563Z,1.40
2023-12-13T02:42:49.823Z,1.23
2023-12-13T02:45:16.345Z,1.60
2023-12-13T02:47:42.781Z,1.50
2023-12-13T02:50:10.285Z,1.50
2023-12-13T02:52:36.739Z,1.20
2023-12-13T02:55:03.442Z,1.30
2023-12-13T02:57:30.992Z,1.37
2023-12-13T02:59:57.448Z,1.30
2023-12-13T03:02:23.837Z,1.30
2023-12-13T03:04:50.226Z,1.40
2023-12-13T03:07:16.608Z,1.07
2023-12-13T03:09:42.905Z,1.40
2023-12-13T03:12:09.084Z,1.37
2023-12-13T03:14:36.328Z,1.67
2023-12-13T03:17:02.703Z,1.57
2023-12-13T03:19:29.048Z,1.60
2023-12-13T03:21:55.307Z,1.77
2023-12-13T03:24:21.727Z,1.53
2023-12-13T03:26:48.155Z,1.43
2023-12-13T03:29:14.534Z,1.50
2023-12-13T03:31:41.545Z,1.77
2023-12-13T03:34:08.100Z,1.67
2023-12-13T03:36:34.422Z,1.63
2023-12-13T03:39:00.719Z,2.03
2023-12-13T03:41:27.059Z,2.00
2023-12-13T03:43:53.439Z,1.67
2023-12-13T03:46:21.070Z,2.00
2023-12-13T03:48:47.992Z,2.13
2023-12-13T03:51:14.493Z,1.70
2023-12-13T03:53:42.897Z,1.97
2023-12-13T03:56:10.650Z,1.57
2023-12-13T03:58:37.571Z,1.70
2023-12-13T04:01:04.371Z,2.50
2023-12-13T04:03:30.815Z,1.90
2023-12-13T04:05:57.853Z,1.67
2023-12-13T04:08:24.269Z,1.70
2023-12-13T04:10:50.643Z,1.73
2023-12-13T04:13:16.986Z,1.70
2023-12-13T04:15:43.243Z,1.70
2023-12-13T04:18:09.563Z,2.00
2023-12-13T04:20:36.010Z,2.03
2023-12-13T04:23:04.161Z,2.10
2023-12-13T04:25:30.472Z,2.40
2023-12-13T04:27:56.837Z,1.90
2023-12-13T04:30:23.191Z,1.83
2023-12-13T04:32:49.875Z,2.00
2023-12-13T04:35:16.262Z,2.20
2023-12-13T04:37:42.963Z,2.00
2023-12-13T04:40:11.161Z,2.00
2023-12-13T04:42:37.513Z,1.53
2023-12-13T04:45:05.112Z,1.90
2023-12-13T04:47:31.724Z,2.00
2023-12-13T04:49:58.185Z,1.90
2023-12-13T04:52:24.805Z,2.10
2023-12-13T04:54:53.116Z,2.20
2023-12-13T04:57:20.845Z,2.47
2023-12-13T04:59:47.365Z,1.80
2023-12-13T05:02:13.652Z,2.20
2023-12-13T05:04:39.940Z,2.53
2023-12-13T05:07:06.307Z,2.40
2023-12-13T05:09:32.644Z,2.13
2023-12-13T05:11:59.091Z,2.20
2023-12-13T05:14:25.994Z,2.33
2023-12-13T05:16:52.588Z,2.00
2023-12-13T05:19:19.117Z,2.63
2023-12-13T05:21:45.506Z,3.37
2023-12-13T05:24:11.948Z,4.80
2023-12-13T05:26:38.261Z,3.43
2023-12-13T05:29:04.556Z,2.70
2023-12-13T05:31:31.628Z,2.43
2023-12-13T05:33:57.981Z,2.70
2023-12-13T05:36:25.437Z,2.23
2023-12-13T05:38:52.615Z,2.43
2023-12-13T05:41:18.991Z,2.37
2023-12-13T05:43:45.398Z,2.60
2023-12-13T05:46:11.919Z,3.37
2023-12-13T05:48:39.208Z,2.80
2023-12-13T05:51:06.297Z,3.63
2023-12-13T05:53:32.715Z,3.17
2023-12-13T05:56:00.209Z,3.17
2023-12-13T05:58:27.081Z,4.00
2023-12-13T06:00:53.381Z,4.00
2023-12-13T06:03:20.145Z,4.13
2023-12-13T06:05:47.620Z,3.93
2023-12-13T06:08:14.024Z,4.10
2023-12-13T06:10:40.689Z,3.70
2023-12-13T06:13:07.070Z,3.90
2023-12-13T06:15:33.481Z,3.80
2023-12-13T06:18:00.001Z,3.63
2023-12-13T06:20:26.708Z,4.33
2023-12-13T06:22:54.754Z,4.40
2023-12-13T06:25:21.106Z,4.30
2023-12-13T06:27:47.322Z,4.23
2023-12-13T06:30:14.107Z,4.13
2023-12-13T06:32:40.554Z,4.03
2023-12-13T06:35:07.656Z,4.00
2023-12-13T06:37:34.247Z,3.40
2023-12-13T06:40:01.608Z,3.80
2023-12-13T06:42:29.075Z,5.23
2023-12-13T06:44:55.365Z,4.00
2023-12-13T06:47:22.067Z,3.97
2023-12-13T06:49:48.455Z,4.03
2023-12-13T06:52:15.521Z,4.87
2023-12-13T06:54:42.073Z,4.93
2023-12-13T06:57:09.732Z,3.70
2023-12-13T06:59:36.120Z,4.43
2023-12-13T07:02:05.421Z,3.80
2023-12-13T07:04:32.010Z,3.83
2023-12-13T07:06:59.193Z,4.13
2023-12-13T07:09:25.742Z,3.77
2023-12-13T07:11:52.229Z,3.30
2023-12-13T07:14:20.185Z,3.53
2023-12-13T07:16:46.633Z,3.90
2023-12-13T07:19:13.817Z,3.60
2023-12-13T07:21:40.154Z,4.43
2023-12-13T07:24:06.690Z,5.20
2023-12-13T07:26:33.750Z,4.67
2023-12-13T07:29:01.354Z,3.43
2023-12-13T07:31:28.460Z,4.00
2023-12-13T07:33:54.894Z,4.10
2023-12-13T07:36:21.227Z,3.97
2023-12-13T07:38:48.125Z,3.73
2023-12-13T07:41:14.867Z,4.00
2023-12-13T07:43:41.172Z,4.00
2023-12-13T07:46:07.420Z,3.97
2023-12-13T07:48:34.756Z,4.10
2023-12-13T07:51:01.357Z,4.17
2023-12-13T07:53:28.156Z,3.93
2023-12-13T07:55:54.678Z,3.50
2023-12-13T07:58:21.346Z,3.30
2023-12-13T08:00:48.249Z,3.53
2023-12-13T08:03:14.745Z,2.97
2023-12-13T08:05:41.906Z,3.30
2023-12-13T08:08:08.897Z,2.97
2023-12-13T08:10:35.326Z,3.50
2023-12-13T08:13:01.672Z,4.03
2023-12-13T08:15:28.143Z,3.60
2023-12-13T08:17:54.639Z,3.90
2023-12-13T08:20:21.103Z,3.60
2023-12-13T08:22:48.301Z,3.23
2023-12-13T08:25:14.874Z,3.40
2023-12-13T08:27:41.252Z,3.17
2023-12-13T08:30:08.684Z,3.07
2023-12-13T08:32:34.954Z,3.20
2023-12-13T08:35:01.279Z,3.10
2023-12-13T08:37:27.713Z,2.73
2023-12-13T08:39:57.231Z,3.30
2023-12-13T08:42:26.312Z,3.13
2023-12-13T08:44:54.581Z,3.07
2023-12-13T08:47:22.262Z,4.17
2023-12-13T08:49:49.312Z,3.40
2023-12-13T08:52:17.697Z,3.60
2023-12-13T08:54:44.020Z,3.67
2023-12-13T08:57:11.060Z,3.50
2023-12-13T08:59:37.306Z,3.60
2023-12-13T09:02:04.146Z,3.60
2023-12-13T09:04:30.503Z,3.60
2023-12-13T09:06:57.215Z,3.37
2023-12-13T09:09:23.421Z,3.50
2023-12-13T09:11:49.686Z,3.60
2023-12-13T09:14:16.726Z,3.03
2023-12-13T09:16:43.081Z,3.50
2023-12-13T09:19:09.478Z,3.10
2023-12-13T09:21:35.832Z,3.33
2023-12-13T09:24:03.385Z,3.03
2023-12-13T09:26:29.671Z,3.30
2023-12-13T09:28:59.826Z,2.80
2023-12-13T09:31:26.785Z,3.30
2023-12-13T09:33:53.256Z,3.17
2023-12-13T09:36:20.183Z,3.10
2023-12-13T09:38:47.230Z,3.50
2023-12-13T09:41:14.248Z,3.20
2023-12-13T09:43:42.627Z,3.90
2023-12-13T09:46:12.180Z,3.27
2023-12-13T09:48:39.719Z,3.40
2023-12-13T09:51:10.660Z,3.47
2023-12-13T09:53:38.828Z,3.37
2023-12-13T09:56:05.751Z,3.73
2023-12-13T09:58:32.037Z,3.70
2023-12-13T10:00:58.374Z,3.63
2023-12-13T10:03:24.891Z,3.90
2023-12-13T10:05:52.513Z,3.40
2023-12-13T10:08:19.511Z,3.70
2023-12-13T10:10:47.707Z,4.50
2023-12-13T10:13:14.597Z,3.77
2023-12-13T10:15:40.864Z,3.90
2023-12-13T10:18:07.347Z,3.50
2023-12-13T10:20:35.336Z,3.83
2023-12-13T10:23:05.406Z,3.90
2023-12-13T10:25:31.711Z,3.57
2023-12-13T10:27:58.148Z,4.27
2023-12-13T10:30:26.194Z,4.47
2023-12-13T10:32:52.606Z,4.50
2023-12-13T10:35:19.994Z,3.63
2023-12-13T10:37:48.854Z,4.50
2023-12-13T10:40:18.279Z,3.60
2023-12-13T10:42:46.034Z,3.43
2023-12-13T10:45:12.685Z,4.33
2023-12-13T10:47:44.969Z,4.13
2023-12-13T10:50:12.288Z,3.33
2023-12-13T10:52:40.029Z,3.97
2023-12-13T10:55:08.015Z,3.83
2023-12-13T10:57:36.826Z,3.57
2023-12-13T11:00:04.022Z,3.80
2023-12-13T11:02:35.230Z,4.53
2023-12-13T11:05:01.859Z,4.27
2023-12-13T11:07:28.290Z,3.93
2023-12-13T11:09:55.635Z,4.60
2023-12-13T11:12:22.317Z,3.97
2023-12-13T11:14:50.584Z,4.23
2023-12-13T11:17:18.384Z,4.27
2023-12-13T11:19:45.861Z,4.63
2023-12-13T11:22:12.812Z,4.10
2023-12-13T11:24:41.401Z,4.67
2023-12-13T11:27:10.637Z,4.97
2023-12-13T11:29:37.064Z,4.50
2023-12-13T11:32:05.202Z,4.70
2023-12-13T11:34:35.534Z,4.40
2023-12-13T11:37:03.382Z,5.20
2023-12-13T11:39:30.034Z,5.00
2023-12-13T11:41:57.603Z,5.00
2023-12-13T11:44:27.011Z,5.83
2023-12-13T11:46:54.340Z,4.60
2023-12-13T11:49:22.124Z,4.50
2023-12-13T11:51:48.738Z,4.70
2023-12-13T11:54:15.206Z,3.27
2023-12-13T11:56:41.925Z,3.50
2023-12-13T11:59:08.195Z,3.40
2023-12-13T12:01:35.828Z,2.93
2023-12-13T12:04:03.006Z,3.43
2023-12-13T12:06:30.422Z,3.03
2023-12-13T12:09:00.193Z,3.03
2023-12-13T12:11:26.664Z,3.07
2023-12-13T12:13:53.086Z,3.07
2023-12-13T12:16:19.995Z,3.50
2023-12-13T12:18:46.419Z,3.17
2023-12-13T12:21:13.024Z,2.73
2023-12-13T12:23:40.920Z,2.63
2023-12-13T12:26:11.856Z,2.30
2023-12-13T12:28:39.842Z,2.53
2023-12-13T12:31:07.023Z,2.87
2023-12-13T12:33:33.369Z,2.53
2023-12-13T12:35:59.824Z,2.43
2023-12-13T12:38:26.206Z,2.97
2023-12-13T12:40:53.115Z,2.40
2023-12-13T12:43:20.707Z,2.67
2023-12-13T12:45:47.401Z,2.30
2023-12-13T12:48:14.124Z,2.67
2023-12-13T12:50:40.672Z,2.87
2023-12-13T12:53:07.995Z,2.60
2023-12-13T12:55:34.702Z,2.80
2023-12-13T12:58:01.654Z,2.60
2023-12-13T13:00:27.944Z,2.47
2023-12-13T13:02:54.387Z,2.57
2023-12-13T13:05:20.777Z,2.70
2023-12-13T13:07:47.397Z,2.53
2023-12-13T13:10:13.706Z,2.97
2023-12-13T13:12:40.664Z,2.93
2023-12-13T13:15:10.165Z,3.13
2023-12-13T13:17:37.268Z,3.50
2023-12-13T13:20:13.054Z,2.93
2023-12-13T13:22:40.121Z,3.07
2023-12-13T13:25:07.016Z,3.07
2023-12-13T13:27:33.335Z,2.70
2023-12-13T13:29:59.699Z,2.67
2023-12-13T13:32:26.734Z,2.83
2023-12-13T13:34:53.679Z,2.67
2023-12-13T13:37:20.092Z,3.00
2023-12-13T13:39:48.125Z,3.00
2023-12-13T13:42:14.690Z,2.87
2023-12-13T13:44:41.174Z,3.03
2023-12-13T13:47:08.060Z,2.40
2023-12-13T13:49:35.068Z,2.50
2023-12-13T13:52:01.424Z,3.20
2023-12-13T13:54:29.010Z,2.73
2023-12-13T13:56:55.246Z,2.20
2023-12-13T13:59:21.633Z,2.67
2023-12-13T14:01:49.095Z,2.53
2023-12-13T14:04:15.562Z,2.30
2023-12-13T14:06:43.160Z,2.50
2023-12-13T14:09:10.293Z,3.23
2023-12-13T14:11:36.614Z,2.57
2023-12-13T14:14:03.102Z,2.60
2023-12-13T14:16:29.569Z,3.30
2023-12-13T14:18:56.448Z,3.40
2023-12-13T14:21:23.023Z,2.50
2023-12-13T14:23:50.006Z,2.77
2023-12-13T14:26:16.645Z,2.67
2023-12-13T14:28:43.233Z,2.97
2023-12-13T14:31:09.521Z,2.60
2023-12-13T14:33:35.887Z,2.60
2023-12-13T14:36:02.155Z,2.73
2023-12-13T14:38:28.392Z,2.80
2023-12-13T14:40:55.611Z,2.93
2023-12-13T14:43:22.389Z,2.53
2023-12-13T14:45:48.641Z,2.93
2023-12-13T14:48:15.163Z,2.90
2023-12-13T14:50:41.993Z,3.13
2023-12-13T14:53:09.068Z,3.40
2023-12-13T14:55:35.927Z,3.17
2023-12-13T14:58:03.136Z,2.80
2023-12-13T15:00:29.632Z,3.17
2023-12-13T15:02:56.751Z,2.97
2023-12-13T15:05:23.314Z,2.93
2023-12-13T15:07:52.277Z,3.00
2023-12-13T15:10:18.890Z,3.30
2023-12-13T15:12:45.266Z,2.97
2023-12-13T15:15:12.250Z,3.57
2023-12-13T15:17:39.269Z,3.47
2023-12-13T15:20:09.050Z,3.17
2023-12-13T15:22:36.026Z,2.77
2023-12-13T15:25:06.729Z,2.90
2023-12-13T15:27:36.851Z,3.60
2023-12-13T15:30:04.297Z,3.30
2023-12-13T15:32:31.459Z,3.23
2023-12-13T15:34:57.894Z,2.87
2023-12-13T15:37:24.248Z,3.60
2023-12-13T15:39:50.511Z,2.40
2023-12-13T15:42:16.721Z,2.97
2023-12-13T15:44:42.937Z,2.30
2023-12-13T15:47:09.228Z,2.40
2023-12-13T15:49:36.261Z,2.63
2023-12-13T15:52:03.534Z,2.40
2023-12-13T15:54:29.878Z,2.53
2023-12-13T15:56:56.096Z,1.97
2023-12-13T15:59:22.356Z,2.10
2023-12-13T16:01:48.724Z,2.50
2023-12-13T16:04:15.137Z,2.43
2023-12-13T16:06:42.204Z,2.23
2023-12-13T16:09:08.472Z,2.80
2023-12-13T16:11:34.832Z,2.47
2023-12-13T16:14:01.556Z,2.30
2023-12-13T16:16:28.322Z,2.17
2023-12-13T16:18:55.117Z,1.80
2023-12-13T16:21:21.742Z,2.10
2023-12-13T16:23:49.153Z,2.27
2023-12-13T16:26:15.475Z,2.10
2023-12-13T16:28:41.878Z,2.13
2023-12-13T16:31:08.268Z,2.17
2023-12-13T16:33:35.544Z,2.47
2023-12-13T16:36:01.830Z,2.00
2023-12-13T16:38:28.332Z,2.47
2023-12-13T16:40:56.655Z,2.07
2023-12-13T16:43:23.054Z,1.90
2023-12-13T16:45:50.811Z,2.10
2023-12-13T16:48:17.311Z,2.43
2023-12-13T16:50:43.766Z,2.10
2023-12-13T16:53:10.584Z,3.17
2023-12-13T16:55:37.202Z,2.60
2023-12-13T16:58:05.605Z,2.57
2023-12-13T17:00:31.909Z,2.87
2023-12-13T17:02:59.743Z,2.43
2023-12-13T17:05:27.875Z,2.23
2023-12-13T17:07:54.392Z,2.73
2023-12-13T17:10:20.695Z,2.60
2023-12-13T17:12:47.104Z,3.93
2023-12-13T17:15:14.348Z,5.33
2023-12-13T17:17:41.093Z,5.63
2023-12-13T17:20:08.413Z,4.97
2023-12-13T17:22:35.524Z,4.70
2023-12-13T17:25:02.468Z,5.80
2023-12-13T17:27:29.140Z,4.83
2023-12-13T17:29:56.103Z,5.27
2023-12-13T17:32:23.136Z,5.37
2023-12-13T17:34:49.597Z,5.83
2023-12-13T17:37:19.023Z,5.73
2023-12-13T17:39:45.342Z,5.23
2023-12-13T17:42:11.777Z,5.27
2023-12-13T17:44:38.414Z,4.77
2023-12-13T17:47:06.897Z,5.10
2023-12-13T17:49:37.228Z,5.27
2023-12-13T17:52:07.195Z,6.43
2023-12-13T17:54:33.689Z,6.53
2023-12-13T17:57:02.629Z,5.87
2023-12-13T17:59:28.959Z,6.07
2023-12-13T18:01:55.264Z,5.43
2023-12-13T18:04:21.908Z,5.97
2023-12-13T18:06:49.889Z,5.77
2023-12-13T18:09:16.791Z,5.00
2023-12-13T18:11:44.199Z,5.47
2023-12-13T18:14:10.631Z,4.63
2023-12-13T18:16:37.442Z,5.20
2023-12-13T18:19:03.994Z,5.00
2023-12-13T18:21:30.748Z,5.37
2023-12-13T18:23:57.669Z,5.10
2023-12-13T18:26:23.998Z,5.07
2023-12-13T18:28:50.307Z,4.67
2023-12-13T18:31:16.732Z,5.03
2023-12-13T18:33:43.742Z,4.93
2023-12-13T18:36:11.051Z,4.87
2023-12-13T18:38:37.529Z,4.60
2023-12-13T18:41:04.795Z,4.90
2023-12-13T18:43:31.171Z,5.13
2023-12-13T18:45:57.537Z,4.40
2023-12-13T18:48:23.989Z,4.47
2023-12-13T18:50:50.393Z,4.80
2023-12-13T18:53:17.068Z,4.77
2023-12-13T18:55:43.877Z,4.17
2023-12-13T18:58:10.882Z,5.03
2023-12-13T19:00:37.229Z,4.77
2023-12-13T19:03:04.071Z,4.50
2023-12-13T19:05:30.434Z,4.90
2023-12-13T19:08:00.164Z,4.33
2023-12-13T19:10:26.696Z,4.07
2023-12-13T19:12:53.139Z,5.03
2023-12-13T19:15:19.997Z,5.67
2023-12-13T19:17:46.343Z,4.90
2023-12-13T19:20:12.851Z,4.70
2023-12-13T19:22:39.204Z,4.57
2023-12-13T19:25:06.242Z,4.37
2023-12-13T19:27:32.993Z,4.90
2023-12-13T19:29:59.432Z,5.13
2023-12-13T19:32:26.501Z,4.60
2023-12-13T19:34:53.206Z,6.57
2023-12-13T19:37:19.445Z,4.77
2023-12-13T19:39:47.564Z,6.67
2023-12-13T19:42:13.881Z,5.40
2023-12-13T19:44:40.432Z,5.67
2023-12-13T19:47:08.144Z,5.50
2023-12-13T19:49:35.119Z,6.60
2023-12-13T19:52:01.609Z,5.80
2023-12-13T19:54:27.986Z,6.27
2023-12-13T19:56:54.246Z,6.07
2023-12-13T19:59:20.596Z,6.60
2023-12-13T20:01:47.115Z,7.50
2023-12-13T20:04:13.599Z,5.80
2023-12-13T20:06:40.632Z,7.87
2023-12-13T20:09:07.167Z,7.40
2023-12-13T20:11:33.442Z,7.03
2023-12-13T20:14:03.444Z,6.73
2023-12-13T20:16:31.818Z,6.10
2023-12-13T20:18:58.838Z,7.97
2023-12-13T20:21:26.748Z,8.53
2023-12-13T20:23:53.990Z,7.03
2023-12-13T20:26:20.249Z,7.03
2023-12-13T20:28:46.729Z,7.13
2023-12-13T20:31:12.996Z,8.50
2023-12-13T20:33:39.393Z,7.83
2023-12-13T20:36:08.276Z,7.80
2023-12-13T20:38:34.580Z,8.73
2023-12-13T20:41:01.615Z,8.63
2023-12-13T20:43:27.945Z,8.47
2023-12-13T20:45:54.337Z,8.10
2023-12-13T20:48:20.705Z,8.80
2023-12-13T20:50:47.118Z,7.60
2023-12-13T20:53:13.494Z,7.90
2023-12-13T20:55:40.157Z,6.70
2023-12-13T20:58:07.320Z,7.43
2023-12-13T21:00:33.582Z,7.70
2023-12-13T21:03:00.241Z,7.23
2023-12-13T21:05:28.487Z,6.33
2023-12-13T21:07:56.123Z,7.60
2023-12-13T21:10:22.567Z,7.20
2023-12-13T21:12:48.901Z,7.50
2023-12-13T21:15:16.483Z,7.50
2023-12-13T21:17:42.969Z,7.03
2023-12-13T21:20:10.313Z,6.80
2023-12-13T21:22:37.156Z,7.40
2023-12-13T21:25:04.171Z,7.90
2023-12-13T21:27:30.549Z,8.13
2023-12-13T21:29:56.916Z,7.13
2023-12-13T21:32:24.075Z,7.30
2023-12-13T21:34:50.694Z,7.40
2023-12-13T21:37:16.960Z,7.40
2023-12-13T21:39:43.202Z,6.80
2023-12-13T21:42:09.617Z,7.10
2023-12-13T21:44:36.043Z,8.17
2023-12-13T21:47:02.567Z,7.30
2023-12-13T21:49:29.634Z,7.23
2023-12-13T21:51:56.041Z,7.77
2023-12-13T21:54:22.404Z,8.30
2023-12-13T21:56:48.725Z,8.80
2023-12-13T21:59:15.205Z,10.27
2023-12-13T22:01:42.100Z,9.40
2023-12-13T22:04:08.530Z,10.53
2023-12-13T22:06:35.612Z,11.37
2023-12-13T22:09:01.939Z,9.90
2023-12-13T22:11:28.273Z,9.20
2023-12-13T22:13:54.695Z,11.37
2023-12-13T22:16:21.628Z,11.00
2023-12-13T22:18:57.475Z,11.73
2023-12-13T22:21:24.789Z,11.30
2023-12-13T22:23:53.604Z,10.87
2023-12-13T22:26:20.468Z,11.53
2023-12-13T22:28:46.880Z,11.63
2023-12-13T22:31:13.285Z,11.70
2023-12-13T22:33:39.653Z,11.77
2023-12-13T22:36:07.217Z,12.43
2023-12-13T22:38:33.578Z,13.00
2023-12-13T22:41:00.764Z,14.00
2023-12-13T22:43:28.224Z,16.67
2023-12-13T22:45:54.552Z,16.33
2023-12-13T22:48:20.861Z,17.53
2023-12-13T22:50:47.354Z,17.87
2023-12-13T22:53:14.442Z,16.80
2023-12-13T22:55:40.827Z,18.17
2023-12-13T22:58:07.838Z,23.30
2023-12-13T23:00:34.137Z,25.73
2023-12-13T23:03:00.634Z,23.63
2023-12-13T23:05:26.971Z,23.63
2023-12-13T23:07:53.427Z,23.90
2023-12-13T23:10:20.317Z,20.13
2023-12-13T23:12:46.686Z,19.93
2023-12-13T23:15:13.621Z,19.03
2023-12-13T23:17:40.294Z,20.27
2023-12-13T23:20:08.246Z,21.40
2023-12-13T23:22:34.939Z,22.13
2023-12-13T23:25:02.183Z,21.00
2023-12-13T23:27:28.988Z,20.20
2023-12-13T23:29:55.320Z,20.60
2023-12-13T23:32:22.783Z,20.43
2023-12-13T23:34:49.648Z,19.47
2023-12-13T23:37:16.110Z,19.97
2023-12-13T23:39:42.754Z,18.77
2023-12-13T23:42:09.514Z,19.80
2023-12-13T23:44:35.827Z,20.47
2023-12-13T23:47:03.038Z,22.70
2023-12-13T23:49:30.049Z,23.67
2023-12-13T23:51:56.368Z,23.00
2023-12-13T23:54:22.599Z,23.27
2023-12-13T23:56:49.002Z,22.10
2023-12-13T23:59:15.493Z,23.73
